LROP

Bucharest/Henri Coandă International Airport

Airport
ICAO code
LROP
IATA Code
OTP
Summary
ICAO Region
EUR
ICAO Territory
Location

Otopeni, Bucuresti

Serving
Bucharest
Elevation
314 ft
Coordinates
44° 34' 18" N , 26° 5' 6" E
KCC
Metar
Observation
LROP 281900Z VRB01KT CAVOK 17/13 Q1005 NOSIG
Station
Bucuresti Otopeni
Date/Time
2022-09-28 19:00:00
Wind speed
01 kts
Lowest cloud amount
clouds and visibility OK
Temperature
17°C
Dew point
13°C
Humidity
77%
QNH
1005 hPa
Weather condition
n/a

Description

International airport serving the capital city of Romania.

Climatology

Humid “subtropical” climate (Köppen climate classification Cfa) - characterized by hot, humid summers and cool winters. Significant amounts of precipitation occur in all seasons in most areas. Winter rainfall (and sometimes snowfall) is associated with large storms that the westerlies steer from west to east. Most summer rainfall occurs during thunderstorms.

Runways

Designator Length Width Surface Rops
08L/26R 3500 45 ASP Yes/Yes
08R/26L 3500 45 ASP Yes/Yes

Airport map

Aerial View

SKYbrary Partners:

Safety knowledge contributed by: